sensor_id;sensor_type;location;lat;lon;timestamp;pressure;altitude;pressure_sealevel;temperature;humidity
40384;BME280;26097;42.366;23.818;2022-07-22T00:01:05;94299.44;;;14.88;85.01
40384;BME280;26097;42.366;23.818;2022-07-22T00:04:06;94303.31;;;14.84;85.65
40384;BME280;26097;42.366;23.818;2022-07-22T00:07:06;94308.56;;;14.84;86.07
40384;BME280;26097;42.366;23.818;2022-07-22T00:10:08;94311.19;;;14.84;86.13
40384;BME280;26097;42.366;23.818;2022-07-22T00:13:10;94314.91;;;15.01;85.49
40384;BME280;26097;42.366;23.818;2022-07-22T00:16:11;94305.81;;;14.95;85.93
40384;BME280;26097;42.366;23.818;2022-07-22T00:19:12;94308.28;;;14.87;86.45
40384;BME280;26097;42.366;23.818;2022-07-22T00:22:13;94309.25;;;14.86;86.88
40384;BME280;26097;42.366;23.818;2022-07-22T00:25:13;94304.69;;;14.98;86.57
40384;BME280;26097;42.366;23.818;2022-07-22T00:28:13;94303.03;;;14.87;86.92
40384;BME280;26097;42.366;23.818;2022-07-22T00:31:14;94300.97;;;14.81;87.38
40384;BME280;26097;42.366;23.818;2022-07-22T00:34:14;94303.44;;;14.73;87.79
40384;BME280;26097;42.366;23.818;2022-07-22T00:37:15;94295.38;;;14.64;87.99
40384;BME280;26097;42.366;23.818;2022-07-22T00:40:15;94297.44;;;14.61;88.20
40384;BME280;26097;42.366;23.818;2022-07-22T00:43:16;94296.09;;;14.66;87.99
40384;BME280;26097;42.366;23.818;2022-07-22T00:46:16;94293.84;;;14.62;88.08
40384;BME280;26097;42.366;23.818;2022-07-22T00:49:17;94298.84;;;14.65;88.42
40384;BME280;26097;42.366;23.818;2022-07-22T00:52:18;94299.66;;;14.55;88.77
40384;BME280;26097;42.366;23.818;2022-07-22T00:55:19;94298.28;;;14.51;88.94
40384;BME280;26097;42.366;23.818;2022-07-22T00:58:19;94292.19;;;14.51;89.15
40384;BME280;26097;42.366;23.818;2022-07-22T01:01:22;94298.97;;;14.63;88.63
40384;BME280;26097;42.366;23.818;2022-07-22T01:04:22;94294.53;;;14.54;89.39
40384;BME280;26097;42.366;23.818;2022-07-22T01:07:22;94294.50;;;14.44;89.96
40384;BME280;26097;42.366;23.818;2022-07-22T01:10:23;94298.69;;;14.47;90.24
40384;BME280;26097;42.366;23.818;2022-07-22T01:13:23;94300.47;;;14.36;90.48
40384;BME280;26097;42.366;23.818;2022-07-22T01:16:24;94296.59;;;14.40;90.28
40384;BME280;26097;42.366;23.818;2022-07-22T01:19:25;94304.06;;;14.35;90.58
40384;BME280;26097;42.366;23.818;2022-07-22T01:22:26;94301.41;;;14.25;91.16
40384;BME280;26097;42.366;23.818;2022-07-22T01:25:27;94301.38;;;14.16;91.84
40384;BME280;26097;42.366;23.818;2022-07-22T01:28:27;94298.22;;;14.22;92.16
40384;BME280;26097;42.366;23.818;2022-07-22T01:31:28;94296.81;;;14.18;91.84
40384;BME280;26097;42.366;23.818;2022-07-22T01:34:28;94291.13;;;14.12;92.26
40384;BME280;26097;42.366;23.818;2022-07-22T01:37:29;94282.56;;;14.10;92.54
40384;BME280;26097;42.366;23.818;2022-07-22T01:40:29;94291.81;;;14.14;92.51
40384;BME280;26097;42.366;23.818;2022-07-22T01:43:30;94290.97;;;14.04;93.01
40384;BME280;26097;42.366;23.818;2022-07-22T01:46:31;94293.28;;;13.97;93.09
40384;BME280;26097;42.366;23.818;2022-07-22T01:49:31;94285.81;;;13.93;93.05
40384;BME280;26097;42.366;23.818;2022-07-22T01:52:32;94286.78;;;13.92;93.35
40384;BME280;26097;42.366;23.818;2022-07-22T01:55:32;94281.25;;;13.85;93.60
40384;BME280;26097;42.366;23.818;2022-07-22T01:58:33;94285.75;;;13.73;94.09
40384;BME280;26097;42.366;23.818;2022-07-22T02:01:33;94276.50;;;13.69;94.65
40384;BME280;26097;42.366;23.818;2022-07-22T02:04:33;94283.66;;;13.67;94.66
40384;BME280;26097;42.366;23.818;2022-07-22T02:07:34;94279.97;;;13.69;95.26
40384;BME280;26097;42.366;23.818;2022-07-22T02:10:35;94277.47;;;13.68;95.56
40384;BME280;26097;42.366;23.818;2022-07-22T02:13:35;94283.94;;;13.64;95.12
40384;BME280;26097;42.366;23.818;2022-07-22T02:16:36;94276.66;;;13.67;95.19
40384;BME280;26097;42.366;23.818;2022-07-22T02:19:36;94279.75;;;13.61;95.04
40384;BME280;26097;42.366;23.818;2022-07-22T02:22:36;94281.09;;;13.55;95.46
40384;BME280;26097;42.366;23.818;2022-07-22T02:25:38;94287.31;;;13.54;95.63
40384;BME280;26097;42.366;23.818;2022-07-22T02:28:38;94282.53;;;13.60;95.66
40384;BME280;26097;42.366;23.818;2022-07-22T02:31:39;94276.44;;;13.59;96.17
40384;BME280;26097;42.366;23.818;2022-07-22T02:34:39;94277.25;;;13.50;95.89
40384;BME280;26097;42.366;23.818;2022-07-22T02:37:40;94278.06;;;13.50;96.25
40384;BME280;26097;42.366;23.818;2022-07-22T02:40:40;94271.75;;;13.53;96.20
40384;BME280;26097;42.366;23.818;2022-07-22T02:43:40;94275.00;;;13.45;96.61
40384;BME280;26097;42.366;23.818;2022-07-22T02:46:41;94272.38;;;13.45;96.47
40384;BME280;26097;42.366;23.818;2022-07-22T02:49:41;94275.00;;;13.45;96.83
40384;BME280;26097;42.366;23.818;2022-07-22T02:52:42;94274.53;;;13.40;97.10
40384;BME280;26097;42.366;23.818;2022-07-22T02:55:42;94272.19;;;13.37;97.32
40384;BME280;26097;42.366;23.818;2022-07-22T02:58:43;94276.06;;;13.42;97.53
40384;BME280;26097;42.366;23.818;2022-07-22T03:01:43;94271.44;;;13.46;97.91
40384;BME280;26097;42.366;23.818;2022-07-22T03:04:44;94280.75;;;13.39;97.58
40384;BME280;26097;42.366;23.818;2022-07-22T03:07:44;94276.47;;;13.38;97.83
40384;BME280;26097;42.366;23.818;2022-07-22T03:10:45;94274.41;;;13.41;97.75
40384;BME280;26097;42.366;23.818;2022-07-22T03:13:45;94270.50;;;13.36;98.14
40384;BME280;26097;42.366;23.818;2022-07-22T03:16:46;94276.19;;;13.41;98.52
40384;BME280;26097;42.366;23.818;2022-07-22T03:19:46;94279.28;;;13.46;98.33
40384;BME280;26097;42.366;23.818;2022-07-22T03:22:46;94280.69;;;13.50;98.35
40384;BME280;26097;42.366;23.818;2022-07-22T03:25:47;94277.84;;;13.42;98.82
40384;BME280;26097;42.366;23.818;2022-07-22T03:28:47;94280.25;;;13.45;99.08
40384;BME280;26097;42.366;23.818;2022-07-22T03:31:48;94280.94;;;13.47;99.42
40384;BME280;26097;42.366;23.818;2022-07-22T03:34:48;94284.53;;;13.46;99.22
40384;BME280;26097;42.366;23.818;2022-07-22T03:37:49;94283.72;;;13.55;99.32
40384;BME280;26097;42.366;23.818;2022-07-22T03:40:49;94276.59;;;13.57;98.92
40384;BME280;26097;42.366;23.818;2022-07-22T03:43:50;94276.44;;;13.59;98.92
40384;BME280;26097;42.366;23.818;2022-07-22T03:46:50;94275.38;;;13.62;98.87
40384;BME280;26097;42.366;23.818;2022-07-22T03:49:51;94266.28;;;13.66;99.20
40384;BME280;26097;42.366;23.818;2022-07-22T03:52:52;94264.09;;;13.71;99.77
40384;BME280;26097;42.366;23.818;2022-07-22T03:55:52;94270.72;;;13.75;99.29
40384;BME280;26097;42.366;23.818;2022-07-22T03:58:53;94275.47;;;13.81;99.41
40384;BME280;26097;42.366;23.818;2022-07-22T04:01:53;94283.63;;;13.88;99.45
40384;BME280;26097;42.366;23.818;2022-07-22T04:04:53;94276.34;;;14.02;99.79
40384;BME280;26097;42.366;23.818;2022-07-22T04:07:54;94272.09;;;14.10;100.00
40384;BME280;26097;42.366;23.818;2022-07-22T04:10:54;94276.66;;;14.18;99.94
40384;BME280;26097;42.366;23.818;2022-07-22T04:13:54;94275.44;;;14.32;99.76
40384;BME280;26097;42.366;23.818;2022-07-22T04:16:55;94277.00;;;14.45;99.46
40384;BME280;26097;42.366;23.818;2022-07-22T04:19:55;94275.25;;;14.55;99.50
40384;BME280;26097;42.366;23.818;2022-07-22T04:22:56;94276.63;;;14.69;99.95
40384;BME280;26097;42.366;23.818;2022-07-22T04:25:56;94278.44;;;14.88;99.40
40384;BME280;26097;42.366;23.818;2022-07-22T04:28:56;94279.00;;;15.02;99.41
40384;BME280;26097;42.366;23.818;2022-07-22T04:31:57;94268.75;;;15.18;100.00
40384;BME280;26097;42.366;23.818;2022-07-22T04:34:57;94269.00;;;15.35;99.59
40384;BME280;26097;42.366;23.818;2022-07-22T04:37:58;94270.63;;;15.55;99.85
40384;BME280;26097;42.366;23.818;2022-07-22T04:40:58;94266.97;;;15.76;99.48
40384;BME280;26097;42.366;23.818;2022-07-22T04:43:59;94270.34;;;15.96;99.35
40384;BME280;26097;42.366;23.818;2022-07-22T04:46:59;94268.84;;;16.22;98.16
40384;BME280;26097;42.366;23.818;2022-07-22T04:50:00;94268.38;;;16.36;98.45
40384;BME280;26097;42.366;23.818;2022-07-22T04:53:00;94270.03;;;16.55;98.66
40384;BME280;26097;42.366;23.818;2022-07-22T04:56:00;94267.25;;;16.75;98.10
40384;BME280;26097;42.366;23.818;2022-07-22T04:59:01;94270.72;;;16.94;97.24
40384;BME280;26097;42.366;23.818;2022-07-22T05:02:01;94277.38;;;17.16;96.88
40384;BME280;26097;42.366;23.818;2022-07-22T05:05:03;94272.22;;;17.33;96.84
40384;BME280;26097;42.366;23.818;2022-07-22T05:08:05;94274.97;;;17.49;96.40
40384;BME280;26097;42.366;23.818;2022-07-22T05:11:06;94274.38;;;17.64;95.85
40384;BME280;26097;42.366;23.818;2022-07-22T05:14:06;94265.25;;;17.76;95.33
40384;BME280;26097;42.366;23.818;2022-07-22T05:17:11;94274.22;;;17.92;94.69
40384;BME280;26097;42.366;23.818;2022-07-22T05:20:11;94274.38;;;18.17;92.08
40384;BME280;26097;42.366;23.818;2022-07-22T05:23:12;94266.88;;;18.47;91.03
40384;BME280;26097;42.366;23.818;2022-07-22T05:26:12;94266.91;;;18.63;91.87
40384;BME280;26097;42.366;23.818;2022-07-22T05:29:13;94271.63;;;19.11;89.26
40384;BME280;26097;42.366;23.818;2022-07-22T05:32:14;94269.63;;;19.21;87.84
40384;BME280;26097;42.366;23.818;2022-07-22T05:35:14;94268.66;;;19.47;88.77
40384;BME280;26097;42.366;23.818;2022-07-22T05:38:15;94267.25;;;19.93;81.32
40384;BME280;26097;42.366;23.818;2022-07-22T05:41:15;94266.63;;;20.31;83.34
40384;BME280;26097;42.366;23.818;2022-07-22T05:44:16;94273.25;;;20.66;83.30
40384;BME280;26097;42.366;23.818;2022-07-22T05:47:16;94264.81;;;21.18;76.13
40384;BME280;26097;42.366;23.818;2022-07-22T05:50:16;94267.09;;;21.44;78.47
40384;BME280;26097;42.366;23.818;2022-07-22T05:53:17;94258.75;;;21.86;70.70
40384;BME280;26097;42.366;23.818;2022-07-22T05:56:17;94260.56;;;22.30;66.48
40384;BME280;26097;42.366;23.818;2022-07-22T05:59:18;94257.00;;;22.90;58.50
40384;BME280;26097;42.366;23.818;2022-07-22T06:02:18;94263.50;;;23.31;57.49
40384;BME280;26097;42.366;23.818;2022-07-22T06:05:19;94261.56;;;23.68;56.50
40384;BME280;26097;42.366;23.818;2022-07-22T06:08:20;94262.75;;;23.94;54.40
40384;BME280;26097;42.366;23.818;2022-07-22T06:11:20;94268.19;;;24.07;54.49
40384;BME280;26097;42.366;23.818;2022-07-22T06:14:21;94263.88;;;24.42;52.73
40384;BME280;26097;42.366;23.818;2022-07-22T06:17:21;94265.16;;;24.59;52.87
40384;BME280;26097;42.366;23.818;2022-07-22T06:20:22;94269.28;;;24.68;54.77
40384;BME280;26097;42.366;23.818;2022-07-22T06:23:25;94266.22;;;24.72;52.61
40384;BME280;26097;42.366;23.818;2022-07-22T06:26:25;94267.72;;;24.81;53.92
40384;BME280;26097;42.366;23.818;2022-07-22T06:29:26;94261.19;;;24.90;54.39
40384;BME280;26097;42.366;23.818;2022-07-22T06:32:26;94273.06;;;24.94;54.45
40384;BME280;26097;42.366;23.818;2022-07-22T06:35:27;94267.78;;;25.15;52.41
40384;BME280;26097;42.366;23.818;2022-07-22T06:38:27;94256.31;;;25.21;52.86
40384;BME280;26097;42.366;23.818;2022-07-22T06:41:27;94264.75;;;25.38;51.92
40384;BME280;26097;42.366;23.818;2022-07-22T06:44:28;94261.25;;;25.44;50.88
40384;BME280;26097;42.366;23.818;2022-07-22T06:47:28;94260.28;;;25.59;50.50
40384;BME280;26097;42.366;23.818;2022-07-22T06:50:29;94258.00;;;25.69;50.40
40384;BME280;26097;42.366;23.818;2022-07-22T06:53:30;94259.63;;;25.77;47.88
40384;BME280;26097;42.366;23.818;2022-07-22T06:56:30;94261.28;;;25.78;49.19
40384;BME280;26097;42.366;23.818;2022-07-22T06:59:30;94253.03;;;25.93;49.68
40384;BME280;26097;42.366;23.818;2022-07-22T07:02:31;94255.09;;;25.91;46.15
40384;BME280;26097;42.366;23.818;2022-07-22T07:05:31;94258.16;;;25.94;48.02
40384;BME280;26097;42.366;23.818;2022-07-22T07:08:32;94265.34;;;26.07;48.02
40384;BME280;26097;42.366;23.818;2022-07-22T07:11:32;94267.81;;;26.16;47.21
40384;BME280;26097;42.366;23.818;2022-07-22T07:14:32;94263.69;;;26.20;47.13
40384;BME280;26097;42.366;23.818;2022-07-22T07:17:33;94270.69;;;26.21;45.73
40384;BME280;26097;42.366;23.818;2022-07-22T07:20:33;94273.97;;;26.23;46.74
40384;BME280;26097;42.366;23.818;2022-07-22T07:23:34;94268.59;;;26.36;46.92
40384;BME280;26097;42.366;23.818;2022-07-22T07:26:35;94271.00;;;26.45;46.37
40384;BME280;26097;42.366;23.818;2022-07-22T07:29:35;94273.50;;;26.46;47.38
40384;BME280;26097;42.366;23.818;2022-07-22T07:32:37;94266.47;;;26.52;46.67
40384;BME280;26097;42.366;23.818;2022-07-22T07:35:37;94278.38;;;26.63;47.13
40384;BME280;26097;42.366;23.818;2022-07-22T07:38:38;94273.56;;;26.72;47.78
40384;BME280;26097;42.366;23.818;2022-07-22T07:41:38;94284.84;;;26.80;46.80
40384;BME280;26097;42.366;23.818;2022-07-22T07:44:39;94277.47;;;26.76;47.33
40384;BME280;26097;42.366;23.818;2022-07-22T07:47:40;94286.84;;;26.99;47.76
40384;BME280;26097;42.366;23.818;2022-07-22T07:50:41;94287.06;;;26.97;47.12
40384;BME280;26097;42.366;23.818;2022-07-22T07:53:41;94287.47;;;27.01;47.82
40384;BME280;26097;42.366;23.818;2022-07-22T07:56:42;94292.63;;;27.02;46.91
40384;BME280;26097;42.366;23.818;2022-07-22T07:59:42;94294.25;;;27.03;46.92
40384;BME280;26097;42.366;23.818;2022-07-22T08:02:43;94292.97;;;27.06;47.41
40384;BME280;26097;42.366;23.818;2022-07-22T08:05:44;94289.06;;;27.08;46.78
40384;BME280;26097;42.366;23.818;2022-07-22T08:08:44;94295.31;;;26.96;46.14
40384;BME280;26097;42.366;23.818;2022-07-22T08:11:45;94290.84;;;27.21;46.90
40384;BME280;26097;42.366;23.818;2022-07-22T08:14:45;94299.50;;;27.56;47.39
40384;BME280;26097;42.366;23.818;2022-07-22T08:17:45;94297.13;;;27.66;45.14
40384;BME280;26097;42.366;23.818;2022-07-22T08:20:46;94286.81;;;27.70;46.87
40384;BME280;26097;42.366;23.818;2022-07-22T08:23:47;94295.06;;;27.68;45.23
40384;BME280;26097;42.366;23.818;2022-07-22T08:26:49;94289.00;;;27.79;45.76
40384;BME280;26097;42.366;23.818;2022-07-22T08:29:49;94296.34;;;27.91;44.13
40384;BME280;26097;42.366;23.818;2022-07-22T08:32:50;94294.84;;;27.95;43.75
40384;BME280;26097;42.366;23.818;2022-07-22T08:35:50;94289.25;;;28.22;43.89
40384;BME280;26097;42.366;23.818;2022-07-22T08:38:51;94290.84;;;28.30;44.09
40384;BME280;26097;42.366;23.818;2022-07-22T08:41:52;94290.47;;;28.45;43.61
40384;BME280;26097;42.366;23.818;2022-07-22T08:44:54;94289.19;;;28.66;43.58
40384;BME280;26097;42.366;23.818;2022-07-22T08:47:54;94293.91;;;28.89;43.10
40384;BME280;26097;42.366;23.818;2022-07-22T08:50:55;94291.28;;;29.01;42.38
40384;BME280;26097;42.366;23.818;2022-07-22T08:53:55;94291.47;;;29.00;39.51
40384;BME280;26097;42.366;23.818;2022-07-22T08:56:56;94294.75;;;29.02;39.94
40384;BME280;26097;42.366;23.818;2022-07-22T08:59:58;94291.91;;;29.15;38.46
40384;BME280;26097;42.366;23.818;2022-07-22T09:02:58;94286.69;;;29.32;39.46
40384;BME280;26097;42.366;23.818;2022-07-22T09:06:00;94303.63;;;29.33;39.00
40384;BME280;26097;42.366;23.818;2022-07-22T09:09:04;94297.22;;;29.34;37.36
40384;BME280;26097;42.366;23.818;2022-07-22T09:12:07;94302.19;;;29.49;38.14
40384;BME280;26097;42.366;23.818;2022-07-22T09:15:08;94294.16;;;29.61;38.28
40384;BME280;26097;42.366;23.818;2022-07-22T09:18:08;94293.94;;;29.62;37.52
40384;BME280;26097;42.366;23.818;2022-07-22T09:21:11;94293.47;;;29.77;38.03
40384;BME280;26097;42.366;23.818;2022-07-22T09:24:26;94291.72;;;29.71;35.84
40384;BME280;26097;42.366;23.818;2022-07-22T09:27:27;94293.00;;;29.81;37.49
40384;BME280;26097;42.366;23.818;2022-07-22T09:30:27;94296.06;;;29.96;36.56
40384;BME280;26097;42.366;23.818;2022-07-22T09:33:28;94296.84;;;29.85;35.12
40384;BME280;26097;42.366;23.818;2022-07-22T09:36:29;94285.53;;;29.83;35.73
40384;BME280;26097;42.366;23.818;2022-07-22T09:39:31;94282.53;;;30.15;36.88
40384;BME280;26097;42.366;23.818;2022-07-22T09:42:47;94292.09;;;30.34;35.46
40384;BME280;26097;42.366;23.818;2022-07-22T09:45:50;94285.22;;;30.15;35.49
40384;BME280;26097;42.366;23.818;2022-07-22T09:48:51;94286.19;;;30.09;34.64
40384;BME280;26097;42.366;23.818;2022-07-22T09:51:52;94291.28;;;30.34;35.37
40384;BME280;26097;42.366;23.818;2022-07-22T09:54:53;94289.31;;;30.29;33.58
40384;BME280;26097;42.366;23.818;2022-07-22T09:57:55;94280.97;;;30.43;35.19
40384;BME280;26097;42.366;23.818;2022-07-22T10:01:01;94286.34;;;30.55;34.17
40384;BME280;26097;42.366;23.818;2022-07-22T10:04:05;94287.41;;;30.66;34.65
40384;BME280;26097;42.366;23.818;2022-07-22T10:07:06;94279.50;;;30.88;34.70
40384;BME280;26097;42.366;23.818;2022-07-22T10:10:10;94284.84;;;31.00;34.36
40384;BME280;26097;42.366;23.818;2022-07-22T10:13:11;94292.06;;;30.70;33.13
40384;BME280;26097;42.366;23.818;2022-07-22T10:16:12;94281.09;;;30.72;33.32
40384;BME280;26097;42.366;23.818;2022-07-22T10:19:14;94305.38;;;30.77;33.08
40384;BME280;26097;42.366;23.818;2022-07-22T10:25:51;94267.94;;;30.87;33.05
40384;BME280;26097;42.366;23.818;2022-07-22T10:28:52;94267.97;;;31.04;33.62
40384;BME280;26097;42.366;23.818;2022-07-22T10:35:22;94282.75;;;31.31;33.91
40384;BME280;26097;42.366;23.818;2022-07-22T10:38:23;94270.72;;;31.22;32.42
40384;BME280;26097;42.366;23.818;2022-07-22T10:41:33;94278.22;;;31.48;33.22
40384;BME280;26097;42.366;23.818;2022-07-22T10:44:47;94279.56;;;31.34;31.53
40384;BME280;26097;42.366;23.818;2022-07-22T10:47:53;94277.28;;;31.26;32.43
40384;BME280;26097;42.366;23.818;2022-07-22T10:51:05;94267.59;;;31.59;32.13
40384;BME280;26097;42.366;23.818;2022-07-22T10:54:06;94286.53;;;31.64;31.82
40384;BME280;26097;42.366;23.818;2022-07-22T10:57:07;94282.94;;;31.75;31.68
40384;BME280;26097;42.366;23.818;2022-07-22T11:00:07;94278.06;;;31.72;29.36
40384;BME280;26097;42.366;23.818;2022-07-22T11:03:09;94275.25;;;31.50;30.93
40384;BME280;26097;42.366;23.818;2022-07-22T11:09:22;94274.66;;;31.77;31.63
40384;BME280;26097;42.366;23.818;2022-07-22T11:12:23;94261.25;;;31.65;31.80
40384;BME280;26097;42.366;23.818;2022-07-22T11:15:26;94262.81;;;31.95;31.50
40384;BME280;26097;42.366;23.818;2022-07-22T11:18:53;94273.03;;;32.32;32.10
40384;BME280;26097;42.366;23.818;2022-07-22T11:22:14;94267.75;;;32.20;31.33
40384;BME280;26097;42.366;23.818;2022-07-22T11:25:16;94270.19;;;32.39;30.26
40384;BME280;26097;42.366;23.818;2022-07-22T11:28:17;94266.25;;;32.47;29.82
40384;BME280;26097;42.366;23.818;2022-07-22T11:31:18;94261.31;;;32.61;29.67
40384;BME280;26097;42.366;23.818;2022-07-22T11:34:19;94265.63;;;32.84;29.59
40384;BME280;26097;42.366;23.818;2022-07-22T11:37:22;94263.97;;;32.39;26.79
40384;BME280;26097;42.366;23.818;2022-07-22T11:40:23;94259.41;;;32.22;27.60
40384;BME280;26097;42.366;23.818;2022-07-22T11:43:24;94249.91;;;32.54;28.49
40384;BME280;26097;42.366;23.818;2022-07-22T11:46:24;94258.03;;;32.37;28.17
40384;BME280;26097;42.366;23.818;2022-07-22T11:49:30;94265.56;;;32.57;27.28
40384;BME280;26097;42.366;23.818;2022-07-22T11:52:33;94264.88;;;32.67;28.00
40384;BME280;26097;42.366;23.818;2022-07-22T11:55:34;94262.09;;;32.39;28.19
40384;BME280;26097;42.366;23.818;2022-07-22T11:58:38;94260.97;;;32.35;28.63
40384;BME280;26097;42.366;23.818;2022-07-22T12:01:39;94255.72;;;32.68;28.05
40384;BME280;26097;42.366;23.818;2022-07-22T12:04:41;94255.09;;;33.05;27.79
40384;BME280;26097;42.366;23.818;2022-07-22T12:07:42;94259.28;;;32.96;27.25
40384;BME280;26097;42.366;23.818;2022-07-22T12:10:44;94266.19;;;32.86;27.42
40384;BME280;26097;42.366;23.818;2022-07-22T12:13:46;94262.13;;;33.06;27.07
40384;BME280;26097;42.366;23.818;2022-07-22T12:20:09;94252.47;;;33.15;27.20
40384;BME280;26097;42.366;23.818;2022-07-22T12:23:11;94253.50;;;32.87;26.26
40384;BME280;26097;42.366;23.818;2022-07-22T12:26:12;94256.59;;;32.73;26.90
40384;BME280;26097;42.366;23.818;2022-07-22T12:29:24;94250.44;;;32.78;27.11
40384;BME280;26097;42.366;23.818;2022-07-22T12:32:27;94245.41;;;32.87;26.46
40384;BME280;26097;42.366;23.818;2022-07-22T12:35:28;94251.00;;;33.02;26.14
40384;BME280;26097;42.366;23.818;2022-07-22T12:38:30;94240.59;;;32.89;25.54
40384;BME280;26097;42.366;23.818;2022-07-22T12:41:30;94242.16;;;33.35;25.80
40384;BME280;26097;42.366;23.818;2022-07-22T12:44:31;94249.38;;;33.01;23.72
40384;BME280;26097;42.366;23.818;2022-07-22T12:51:04;94241.72;;;33.21;26.12
40384;BME280;26097;42.366;23.818;2022-07-22T12:54:05;94247.44;;;33.24;25.65
40384;BME280;26097;42.366;23.818;2022-07-22T12:57:07;94239.31;;;33.46;25.96
40384;BME280;26097;42.366;23.818;2022-07-22T13:00:08;94233.91;;;33.46;26.14
40384;BME280;26097;42.366;23.818;2022-07-22T13:03:10;94242.59;;;33.54;26.95
40384;BME280;26097;42.366;23.818;2022-07-22T13:06:10;94235.84;;;33.51;27.05
40384;BME280;26097;42.366;23.818;2022-07-22T13:09:11;94232.66;;;33.97;27.48
40384;BME280;26097;42.366;23.818;2022-07-22T13:12:11;94217.97;;;34.26;27.58
40384;BME280;26097;42.366;23.818;2022-07-22T13:15:12;94232.28;;;34.21;26.56
40384;BME280;26097;42.366;23.818;2022-07-22T13:18:12;94230.78;;;34.46;27.11
40384;BME280;26097;42.366;23.818;2022-07-22T13:21:13;94230.97;;;34.82;27.77
40384;BME280;26097;42.366;23.818;2022-07-22T13:24:13;94236.81;;;34.58;26.89
40384;BME280;26097;42.366;23.818;2022-07-22T13:27:14;94236.53;;;34.07;27.02
40384;BME280;26097;42.366;23.818;2022-07-22T13:30:15;94230.94;;;34.24;27.31
40384;BME280;26097;42.366;23.818;2022-07-22T13:33:15;94243.47;;;33.97;26.77
40384;BME280;26097;42.366;23.818;2022-07-22T13:36:17;94236.66;;;34.32;26.67
40384;BME280;26097;42.366;23.818;2022-07-22T13:39:17;94234.72;;;34.76;27.63
40384;BME280;26097;42.366;23.818;2022-07-22T13:42:18;94235.16;;;34.52;25.80
40384;BME280;26097;42.366;23.818;2022-07-22T13:45:19;94240.72;;;34.30;25.84
40384;BME280;26097;42.366;23.818;2022-07-22T13:48:20;94241.22;;;34.27;25.44
40384;BME280;26097;42.366;23.818;2022-07-22T13:51:20;94224.19;;;34.85;25.85
40384;BME280;26097;42.366;23.818;2022-07-22T13:54:21;94225.78;;;34.81;25.83
40384;BME280;26097;42.366;23.818;2022-07-22T13:57:21;94225.00;;;34.91;25.99
40384;BME280;26097;42.366;23.818;2022-07-22T14:00:22;94227.25;;;35.04;27.09
40384;BME280;26097;42.366;23.818;2022-07-22T14:03:22;94225.56;;;34.93;26.24
40384;BME280;26097;42.366;23.818;2022-07-22T14:06:23;94220.44;;;34.96;25.61
40384;BME280;26097;42.366;23.818;2022-07-22T14:09:23;94229.25;;;34.60;25.99
40384;BME280;26097;42.366;23.818;2022-07-22T14:12:23;94228.72;;;34.64;26.74
40384;BME280;26097;42.366;23.818;2022-07-22T14:15:24;94228.06;;;34.46;26.42
40384;BME280;26097;42.366;23.818;2022-07-22T14:18:24;94227.63;;;34.59;26.39
40384;BME280;26097;42.366;23.818;2022-07-22T14:21:25;94233.56;;;34.56;26.63
40384;BME280;26097;42.366;23.818;2022-07-22T14:24:25;94233.69;;;33.91;26.38
40384;BME280;26097;42.366;23.818;2022-07-22T14:27:26;94245.06;;;33.93;26.12
40384;BME280;26097;42.366;23.818;2022-07-22T14:30:26;94233.91;;;34.22;26.93
40384;BME280;26097;42.366;23.818;2022-07-22T14:33:28;94236.06;;;34.79;27.14
40384;BME280;26097;42.366;23.818;2022-07-22T14:36:29;94234.13;;;34.64;27.25
40384;BME280;26097;42.366;23.818;2022-07-22T14:39:29;94236.44;;;34.44;26.85
40384;BME280;26097;42.366;23.818;2022-07-22T14:42:30;94231.28;;;34.38;27.36
40384;BME280;26097;42.366;23.818;2022-07-22T14:45:30;94236.03;;;34.15;26.83
40384;BME280;26097;42.366;23.818;2022-07-22T14:48:31;94229.53;;;34.16;27.38
40384;BME280;26097;42.366;23.818;2022-07-22T14:51:31;94238.16;;;34.08;26.94
40384;BME280;26097;42.366;23.818;2022-07-22T14:54:31;94233.03;;;33.73;26.23
40384;BME280;26097;42.366;23.818;2022-07-22T14:57:32;94235.16;;;34.09;26.53
40384;BME280;26097;42.366;23.818;2022-07-22T15:00:32;94232.03;;;33.85;26.76
40384;BME280;26097;42.366;23.818;2022-07-22T15:03:33;94225.75;;;34.17;27.88
40384;BME280;26097;42.366;23.818;2022-07-22T15:06:33;94235.44;;;34.02;26.74
40384;BME280;26097;42.366;23.818;2022-07-22T15:09:34;94232.78;;;34.13;28.45
40384;BME280;26097;42.366;23.818;2022-07-22T15:12:34;94235.13;;;33.99;26.69
40384;BME280;26097;42.366;23.818;2022-07-22T15:15:35;94230.88;;;33.75;26.48
40384;BME280;26097;42.366;23.818;2022-07-22T15:18:35;94232.34;;;33.56;26.87
40384;BME280;26097;42.366;23.818;2022-07-22T15:21:36;94231.41;;;33.78;26.83
40384;BME280;26097;42.366;23.818;2022-07-22T15:24:36;94226.50;;;33.69;26.76
40384;BME280;26097;42.366;23.818;2022-07-22T15:27:37;94224.44;;;33.49;26.91
40384;BME280;26097;42.366;23.818;2022-07-22T15:30:38;94227.91;;;33.77;27.89
40384;BME280;26097;42.366;23.818;2022-07-22T15:33:38;94224.31;;;33.61;27.65
40384;BME280;26097;42.366;23.818;2022-07-22T15:36:39;94225.69;;;33.69;28.46
40384;BME280;26097;42.366;23.818;2022-07-22T15:39:39;94225.03;;;33.51;27.87
40384;BME280;26097;42.366;23.818;2022-07-22T15:42:40;94229.41;;;33.30;28.16
40384;BME280;26097;42.366;23.818;2022-07-22T15:45:40;94229.53;;;33.13;28.03
40384;BME280;26097;42.366;23.818;2022-07-22T15:48:41;94230.91;;;33.21;28.41
40384;BME280;26097;42.366;23.818;2022-07-22T15:51:41;94226.16;;;33.00;29.04
40384;BME280;26097;42.366;23.818;2022-07-22T15:54:42;94239.03;;;32.71;30.10
40384;BME280;26097;42.366;23.818;2022-07-22T15:57:42;94237.06;;;32.66;30.79
40384;BME280;26097;42.366;23.818;2022-07-22T16:01:18;94237.09;;;32.44;29.76
40384;BME280;26097;42.366;23.818;2022-07-22T16:04:18;94236.47;;;32.19;30.05